createdAt,value
2018-07-15T00:03:22.996Z,5.15
2018-07-15T00:08:18.281Z,5.70
2018-07-15T00:13:13.566Z,5.78
2018-07-15T00:18:08.437Z,5.70
2018-07-15T00:23:03.139Z,6.45
2018-07-15T00:27:57.756Z,6.15
2018-07-15T00:32:51.987Z,5.15
2018-07-15T00:37:46.588Z,5.67
2018-07-15T00:42:41.188Z,5.55
2018-07-15T00:47:35.799Z,5.37
2018-07-15T00:52:30.436Z,4.67
2018-07-15T00:57:25.173Z,5.00
2018-07-15T01:02:19.921Z,4.70
2018-07-15T01:07:14.636Z,4.53
2018-07-15T01:12:09.031Z,5.27
2018-07-15T01:17:03.797Z,4.63
2018-07-15T01:21:58.512Z,5.20
2018-07-15T01:26:53.163Z,5.17
2018-07-15T01:31:47.825Z,5.53
2018-07-15T01:36:42.501Z,5.03
2018-07-15T01:41:37.177Z,5.47
2018-07-15T01:46:31.850Z,5.77
2018-07-15T01:51:26.405Z,5.97
2018-07-15T01:56:20.980Z,5.40
2018-07-15T02:01:15.623Z,5.87
2018-07-15T02:06:09.868Z,5.57
2018-07-15T02:11:04.463Z,5.67
2018-07-15T02:15:59.088Z,5.93
2018-07-15T02:20:53.784Z,5.30
2018-07-15T02:25:48.409Z,5.00
2018-07-15T02:30:43.048Z,5.17
2018-07-15T02:35:37.640Z,4.47
2018-07-15T02:40:32.486Z,5.20
2018-07-15T02:45:27.311Z,4.90
2018-07-15T02:50:21.900Z,4.90
2018-07-15T02:55:16.580Z,4.20
2018-07-15T03:00:11.167Z,4.23
2018-07-15T03:05:05.820Z,4.50
2018-07-15T03:10:00.188Z,4.40
2018-07-15T03:14:55.108Z,4.30
2018-07-15T03:19:49.767Z,4.33
2018-07-15T03:24:44.399Z,4.77
2018-07-15T03:29:39.072Z,4.37
2018-07-15T03:34:33.640Z,4.13
2018-07-15T03:39:28.244Z,4.23
2018-07-15T03:44:22.903Z,3.77
2018-07-15T03:49:17.207Z,3.90
2018-07-15T03:54:11.890Z,3.47
2018-07-15T03:59:06.494Z,4.03
2018-07-15T04:04:01.687Z,3.60
2018-07-15T04:08:56.473Z,3.23
2018-07-15T04:13:51.430Z,3.40
2018-07-15T04:18:46.100Z,3.00
2018-07-15T04:23:40.748Z,3.10
2018-07-15T04:28:35.456Z,3.20
2018-07-15T04:33:30.089Z,2.97
2018-07-15T04:38:24.765Z,3.30
2018-07-15T04:43:19.582Z,3.13
2018-07-15T04:48:14.241Z,3.40
2018-07-15T04:53:08.939Z,3.13
2018-07-15T04:58:04.530Z,4.47
2018-07-15T05:02:59.280Z,4.77
2018-07-15T05:07:53.967Z,4.70
2018-07-15T05:12:48.707Z,5.13
2018-07-15T05:17:43.369Z,4.97
2018-07-15T05:22:37.969Z,4.53
2018-07-15T05:27:32.579Z,4.43
2018-07-15T05:32:27.156Z,4.07
2018-07-15T05:37:21.731Z,3.83
2018-07-15T05:42:16.357Z,4.13
2018-07-15T05:47:10.976Z,3.90
2018-07-15T05:52:06.850Z,3.60
2018-07-15T05:57:01.471Z,4.10
2018-07-15T06:01:56.135Z,4.10
2018-07-15T06:06:50.819Z,4.40
2018-07-15T06:11:46.599Z,4.13
2018-07-15T06:16:41.183Z,4.43
2018-07-15T06:21:35.838Z,4.00
2018-07-15T06:26:30.513Z,4.27
2018-07-15T06:31:25.190Z,4.33
2018-07-15T06:36:19.832Z,4.40
2018-07-15T06:41:14.568Z,4.33
2018-07-15T06:46:09.427Z,5.13
2018-07-15T06:51:03.750Z,4.23
2018-07-15T06:55:58.420Z,4.73
2018-07-15T07:00:53.010Z,4.50
2018-07-15T07:05:47.713Z,4.60
2018-07-15T07:10:42.444Z,4.57
2018-07-15T07:20:26.939Z,4.40
2018-07-15T07:25:21.681Z,4.43
2018-07-15T07:30:16.362Z,4.10
2018-07-15T07:35:10.948Z,4.30
2018-07-15T07:40:06.780Z,4.30
2018-07-15T07:45:01.399Z,4.50
2018-07-15T07:49:56.009Z,4.53
2018-07-15T07:54:50.656Z,4.33
2018-07-15T07:59:44.964Z,4.07
2018-07-15T08:04:40.294Z,4.33
2018-07-15T08:09:34.933Z,3.83
2018-07-15T08:14:29.679Z,3.63
2018-07-15T08:19:24.447Z,3.80
2018-07-15T08:24:19.289Z,2.85
2018-07-15T08:29:14.903Z,3.20
2018-07-15T08:34:09.626Z,3.20
2018-07-15T08:39:05.453Z,3.90
2018-07-15T08:44:00.111Z,3.12
2018-07-15T08:48:54.780Z,3.50
2018-07-15T08:53:49.519Z,3.65
2018-07-15T08:58:44.722Z,3.02
2018-07-15T09:03:39.386Z,3.65
2018-07-15T09:08:34.442Z,2.80
2018-07-15T09:13:29.083Z,2.98
2018-07-15T09:18:23.716Z,2.55
2018-07-15T09:23:18.311Z,2.90
2018-07-15T09:28:13.177Z,2.90
2018-07-15T09:33:07.864Z,2.52
2018-07-15T09:38:02.943Z,2.85
2018-07-15T09:42:57.524Z,2.80
2018-07-15T09:47:52.293Z,2.92
2018-07-15T09:52:47.033Z,2.72
2018-07-15T09:57:41.651Z,2.65
2018-07-15T10:02:36.284Z,3.05
2018-07-15T10:07:31.063Z,3.08
2018-07-15T10:12:25.797Z,3.05
2018-07-15T10:17:20.542Z,2.62
2018-07-15T10:22:15.170Z,2.95
2018-07-15T10:27:09.799Z,3.00
2018-07-15T10:32:04.616Z,3.00
2018-07-15T10:36:59.283Z,3.30
2018-07-15T10:41:53.940Z,2.98
2018-07-15T10:46:48.704Z,3.80
2018-07-15T10:51:43.397Z,3.30
2018-07-15T10:56:38.060Z,3.10
2018-07-15T11:01:32.704Z,3.72
2018-07-15T11:06:27.052Z,3.60
2018-07-15T11:11:21.701Z,3.20
2018-07-15T11:16:16.478Z,3.33
2018-07-15T11:21:11.213Z,3.45
2018-07-15T11:26:05.969Z,3.58
2018-07-15T11:31:00.699Z,3.33
2018-07-15T11:35:55.229Z,2.67
2018-07-15T11:40:49.911Z,3.35
2018-07-15T11:45:44.525Z,3.40
2018-07-15T11:50:39.156Z,3.50
2018-07-15T11:55:33.718Z,3.12
2018-07-15T12:00:28.351Z,3.20
2018-07-15T12:05:22.940Z,3.42
2018-07-15T12:10:17.541Z,3.17
2018-07-15T12:15:12.130Z,2.83
2018-07-15T12:20:06.796Z,3.12
2018-07-15T12:25:01.468Z,2.83
2018-07-15T12:29:56.112Z,2.90
2018-07-15T12:34:50.762Z,3.00
2018-07-15T12:39:45.355Z,2.75
2018-07-15T12:44:39.978Z,2.87
2018-07-15T12:49:34.647Z,2.90
2018-07-15T12:54:29.379Z,2.70
2018-07-15T12:59:24.055Z,2.70
2018-07-15T13:04:18.751Z,2.85
2018-07-15T13:09:13.383Z,2.95
2018-07-15T13:14:08.029Z,2.95
2018-07-15T13:19:02.738Z,2.60
2018-07-15T13:23:57.499Z,2.62
2018-07-15T13:28:52.153Z,2.45
2018-07-15T13:33:47.045Z,2.45
2018-07-15T13:38:41.651Z,2.30
2018-07-15T13:43:36.430Z,2.45
2018-07-15T13:48:31.292Z,2.35
2018-07-15T13:53:25.932Z,2.22
2018-07-15T13:58:20.636Z,2.30
2018-07-15T14:03:15.348Z,2.45
2018-07-15T14:08:10.093Z,2.47
2018-07-15T14:13:04.877Z,2.50
2018-07-15T14:17:59.479Z,2.20
2018-07-15T14:22:54.211Z,2.20
2018-07-15T14:27:48.850Z,2.10
2018-07-15T14:32:43.401Z,2.45
2018-07-15T14:37:38.205Z,2.15
2018-07-15T14:42:32.811Z,2.65
2018-07-15T14:47:27.490Z,2.00
2018-07-15T14:52:22.188Z,2.37
2018-07-15T14:57:16.860Z,2.60
2018-07-15T15:02:11.577Z,2.47
2018-07-15T15:07:06.420Z,2.30
2018-07-15T15:12:01.124Z,2.30
2018-07-15T15:16:55.897Z,2.70
2018-07-15T15:21:53.423Z,2.10
2018-07-15T15:26:48.197Z,2.55
2018-07-15T15:31:43.148Z,2.20
2018-07-15T15:36:37.895Z,2.40
2018-07-15T15:41:32.608Z,2.33
2018-07-15T15:46:27.219Z,1.92
2018-07-15T15:51:21.904Z,2.60
2018-07-15T15:56:16.468Z,2.50
2018-07-15T16:01:11.120Z,2.25
2018-07-15T16:06:05.949Z,2.00
2018-07-15T16:11:00.527Z,2.30
2018-07-15T16:15:55.256Z,2.10
2018-07-15T16:20:49.831Z,2.30
2018-07-15T16:25:44.551Z,2.15
2018-07-15T16:30:39.299Z,2.52
2018-07-15T16:35:33.972Z,2.90
2018-07-15T16:40:28.729Z,3.08
2018-07-15T16:45:23.315Z,2.47
2018-07-15T16:50:18.007Z,2.58
2018-07-15T16:55:12.326Z,2.80
2018-07-15T17:00:07.229Z,2.22
2018-07-15T17:05:01.896Z,2.12
2018-07-15T17:09:57.249Z,2.47
2018-07-15T17:14:52.013Z,2.50
2018-07-15T17:19:46.728Z,2.58
2018-07-15T17:24:41.419Z,2.20
2018-07-15T17:29:35.738Z,2.67
2018-07-15T17:34:30.481Z,2.58
2018-07-15T17:44:25.947Z,2.42
2018-07-15T17:49:20.918Z,2.25
2018-07-15T17:54:15.693Z,2.40
2018-07-15T17:59:10.970Z,2.00
2018-07-15T18:04:05.713Z,2.25
2018-07-15T18:09:00.527Z,2.30
2018-07-15T18:13:55.216Z,1.90
2018-07-15T18:18:54.078Z,1.98
2018-07-15T18:23:48.892Z,1.62
2018-07-15T18:28:44.255Z,1.90
2018-07-15T18:33:39.251Z,1.72
2018-07-15T18:38:34.326Z,1.75
2018-07-15T18:43:29.368Z,1.98
2018-07-15T18:48:24.365Z,2.20
2018-07-15T18:53:19.132Z,2.37
2018-07-15T18:58:13.848Z,2.08
2018-07-15T19:03:08.600Z,1.95
2018-07-15T19:08:03.399Z,2.10
2018-07-15T19:12:58.173Z,2.05
2018-07-15T19:17:52.902Z,2.50
2018-07-15T19:22:47.690Z,2.42
2018-07-15T19:27:42.421Z,2.20
2018-07-15T19:32:37.116Z,2.17
2018-07-15T19:37:31.949Z,2.15
2018-07-15T19:42:26.772Z,2.10
2018-07-15T19:47:21.763Z,2.55
2018-07-15T19:52:16.489Z,2.12
2018-07-15T19:57:13.159Z,2.17
2018-07-15T20:02:08.127Z,2.05
2018-07-15T20:07:02.855Z,1.87
2018-07-15T20:11:57.615Z,2.10
2018-07-15T20:16:52.316Z,2.15
2018-07-15T20:21:47.108Z,2.02
2018-07-15T20:26:41.828Z,2.40
2018-07-15T20:31:36.567Z,2.77
2018-07-15T20:36:31.373Z,2.63
2018-07-15T20:41:26.346Z,3.23
2018-07-15T20:46:21.289Z,3.00
2018-07-15T20:51:16.197Z,3.43
2018-07-15T20:56:11.087Z,3.17
2018-07-15T21:01:05.702Z,3.37
2018-07-15T21:06:00.447Z,3.20
2018-07-15T21:10:55.213Z,3.20
2018-07-15T21:15:50.043Z,3.47
2018-07-15T21:20:45.032Z,3.07
2018-07-15T21:25:40.119Z,3.10
2018-07-15T21:30:35.056Z,2.80
2018-07-15T21:35:30.257Z,2.80
2018-07-15T21:40:25.367Z,2.67
2018-07-15T21:45:21.067Z,3.50
2018-07-15T21:50:16.577Z,2.90
2018-07-15T21:55:13.988Z,3.00
2018-07-15T22:00:09.514Z,2.90
2018-07-15T22:05:04.854Z,3.43
2018-07-15T22:10:12.153Z,2.77
2018-07-15T22:15:07.021Z,3.50
2018-07-15T22:20:01.953Z,3.37
2018-07-15T22:24:56.828Z,3.10
2018-07-15T22:29:51.686Z,3.13
2018-07-15T22:34:46.459Z,3.30
2018-07-15T22:39:41.223Z,3.47
2018-07-15T22:44:36.107Z,3.73
2018-07-15T22:49:30.920Z,3.13
2018-07-15T22:54:25.924Z,3.13
2018-07-15T22:59:20.802Z,3.90
2018-07-15T23:04:16.288Z,2.97
2018-07-15T23:09:12.145Z,3.33
2018-07-15T23:14:07.608Z,3.60
2018-07-15T23:19:02.448Z,3.53
2018-07-15T23:23:57.236Z,3.60
2018-07-15T23:28:51.643Z,3.60
2018-07-15T23:33:46.377Z,3.47
2018-07-15T23:38:41.360Z,3.37
2018-07-15T23:43:36.829Z,3.53
2018-07-15T23:48:31.587Z,3.50
2018-07-15T23:53:26.395Z,3.37
2018-07-15T23:58:21.144Z,3.77
